Condiciones actuales en los principales Aeropuertos de España-Datos Metar

 

LEAL - Alicante
Actualización: 23/05/2019 19:30
Despejado
Despejado
 Viento del E
Viento: E 9 km/h
Temperatura: 21°C
Rocío: 17°C
Humedad: 78%
Barómetro: 1015 hPa
Resumen: Despejado
Visibilidad: greater than 10 km
2019/05/23 17:30 LEAL 231730Z 09005KT CAVOK 21/17 Q1015 NOSIG
LEAB - Albacete
Actualización: 23/05/2019 19:00
Despejado
Despejado
 Viento del SSO
Viento: SSO 9 km/h
Temperatura: 27°C
Rocío: 8°C
Humedad: 30%
Barómetro: 1016 hPa
Resumen: Despejado
Visibilidad: greater than 10 km
2019/05/23 17:00 LEAB 231700Z 21005KT 170V270 CAVOK 27/08 Q1016 NOSIG
LEAM - Almería
Actualización: 23/05/2019 19:30
Despejado
Despejado
 Viento del varies
Viento: varies 4 km/h
Temperatura: 24°C
Rocío: 12°C
Humedad: 47%
Barómetro: 1014 hPa
Resumen: Despejado
Visibilidad: greater than 10 km
2019/05/23 17:30 LEAM 231730Z VRB02KT CAVOK 24/12 Q1014
 
LEAS - Asturias/Aviles
Actualización: 23/05/2019 19:30
Mostly Cloudy
Mostly Cloudy
 Viento del ONO
Viento: ONO 33 km/h
Temperatura: 14°C
Rocío: 11°C
Humedad: 82%
Barómetro: 1021 hPa
Nubosidad: Mostly Cloudy
Visibilidad: 10 km
Cloud details: Few Clouds 427 m
Mostly Cloudy 549 m
Mostly Cloudy 914 m
2019/05/23 17:30 LEAS 231730Z 30018KT 9999 FEW014 BKN018 BKN030 14/11 Q1021 TEMPO BKN012
LEBZ - Badajoz/Talavera la Real
Actualización: 23/05/2019 19:00
Despejado
Despejado
 Viento del O
Viento: O 26 km/h
Temperatura: 27°C
Rocío: 6°C
Humedad: 26%
Barómetro: 1015 hPa
Resumen: Despejado
Visibilidad: greater than 10 km
2019/05/23 17:00 LEBZ 231700Z 28014KT CAVOK 27/06 Q1015
LEBL - Barcelona
Actualización: 23/05/2019 19:30
Few Clouds
Few Clouds
 Viento del SO
Viento: SO 13 km/h
Temperatura: 19°C
Rocío: 16°C
Humedad: 83%
Barómetro: 1016 hPa
Nubosidad: Few Clouds
Visibilidad: 10 km
Cloud details: Few Clouds 457 m
2019/05/23 17:30 LEBL 231730Z 22007KT 9999 FEW015 19/16 Q1016 NOSIG
 
LEBB - Bilbao
Actualización: 23/05/2019 19:30
Mostly Cloudy
Mostly Cloudy
 Viento del NNO
Viento: NNO 22 km/h
Temperatura: 16°C
Rocío: 14°C
Humedad: 88%
Barómetro: 1020 hPa
Nubosidad: Mostly Cloudy
Visibilidad: 10 km
Cloud details: Partly Cloudy 457 m
Mostly Cloudy 914 m
2019/05/23 17:30 LEBB 231730Z 33012KT 9999 SCT015 BKN030 16/14 Q1020 TEMPO SCT030TCU
LEBG - Burgos/Villafría
Actualización: 23/05/2019 19:30
Despejado
Despejado
 Viento del NNE
Viento: NNE 26 km/h
Temperatura: 18°C
Rocío: 11°C
Humedad: 64%
Barómetro: 1017 hPa
Resumen: Despejado
Visibilidad: greater than 10 km
2019/05/23 17:30 LEBG 231730Z 03014KT CAVOK 18/11 Q1017
LEBA - Córdoba
Actualización: 23/05/2019 19:30
Few Clouds
Few Clouds
 Viento del OSO
Viento: OSO 11 km/h
Temperatura: 31°C
Rocío: 7°C
Humedad: 22%
Barómetro: 1013 hPa
Nubosidad: Few Clouds
Visibilidad: 10 km
Cloud details: Few Clouds 1494 m
2019/05/23 17:30 LEBA 231730Z 25006KT 210V290 9999 FEW049 31/07 Q1013
 
LEGE - Gerona
Actualización: 23/05/2019 19:30
Despejado
Despejado
 Viento del S
Viento: S 11 km/h
Temperatura: 20°C
Rocío: 13°C
Humedad: 64%
Barómetro: 1015 hPa
Resumen: Despejado
Visibilidad: greater than 10 km
2019/05/23 17:30 LEGE 231730Z 19006KT 140V230 CAVOK 20/13 Q1015
LEGR - Granada
Actualización: 23/05/2019 19:30
Few Clouds
Few Clouds
 Viento del SO
Viento: SO 17 km/h
Temperatura: 29°C
Rocío: 2°C
Humedad: 18%
Barómetro: 1015 hPa
Nubosidad: Few Clouds
Visibilidad: 10 km
Cloud details: Few Clouds 1829 m
2019/05/23 17:30 LEGR 231730Z 23009KT 9999 FEW060 29/02 Q1015
GCHI - Hierro
Actualización: 23/05/2019 19:30
Despejado
Despejado
 Viento del N
Viento: N 35 km/h
Temperatura: 22°C
Rocío: 16°C
Humedad: 69%
Barómetro: 1018 hPa
Resumen: Despejado
Visibilidad: greater than 10 km
2019/05/23 17:30 GCHI 231730Z AUTO 35019KT CAVOK 22/16 Q1018
 
LEIB - Ibiza
Actualización: 23/05/2019 19:30
Despejado
Despejado
 Viento del S
Viento: S 11 km/h
Temperatura: 23°C
Rocío: 12°C
Humedad: 50%
Barómetro: 1015 hPa
Resumen: Despejado
Visibilidad: greater than 10 km
2019/05/23 17:30 LEIB 231730Z 17006KT 120V220 CAVOK 23/12 Q1015 NOSIG
LEJR - Jerez de la Frontera
Actualización: 23/05/2019 19:30
Despejado
Despejado
 Viento del O
Viento: O 20 km/h
Temperatura: 29°C
Rocío: 7°C
Humedad: 25%
Barómetro: 1014 hPa
Resumen: Despejado
Visibilidad: greater than 10 km
2019/05/23 17:30 LEJR 231730Z 27011KT 250V310 CAVOK 29/07 Q1014
LECO - A Coruña
Actualización: 23/05/2019 19:30
Mostly Cloudy
Mostly Cloudy
 Viento del NNO
Viento: NNO 13 km/h
Temperatura: 16°C
Rocío: 11°C
Humedad: 72%
Barómetro: 1022 hPa
Nubosidad: Mostly Cloudy
Visibilidad: 10 km
Cloud details: Few Clouds 610 m
Mostly Cloudy 762 m
2019/05/23 17:30 LECO 231730Z 34007KT 280V020 9999 FEW020 BKN025 16/11 Q1022 NOSIG
 
GCLA - La Palma
Actualización: 23/05/2019 19:30
Few Clouds
Few Clouds
 Viento del NNE
Viento: NNE 30 km/h
Temperatura: 22°C
Rocío: 15°C
Humedad: 65%
Barómetro: 1019 hPa
Nubosidad: Few Clouds
Visibilidad: 10 km
Cloud details: Few Clouds 1219 m
2019/05/23 17:30 GCLA 231730Z 03016KT 360V060 9999 FEW040 22/15 Q1019
GCRR - Lanzarote
Actualización: 23/05/2019 19:30
Few Clouds
Few Clouds
 Viento del N
Viento: N 44 km/h
Temperatura: 23°C
Rocío: 16°C
Humedad: 65%
Barómetro: 1015 hPa
Nubosidad: Few Clouds
Visibilidad: 10 km
Cloud details: Few Clouds 762 m
2019/05/23 17:30 GCRR 231730Z 36024KT 9999 FEW025 23/16 Q1015
GCLP - Las Palmas
Actualización: 23/05/2019 19:30
Few Clouds
Few Clouds
 Viento del N
Viento: N 52 km/h, Racha: 70 km/h
Temperatura: 22°C
Rocío: 13°C
Humedad: 57%
Barómetro: 1016 hPa
Nubosidad: Few Clouds
Visibilidad: 10 km
Cloud details: Few Clouds 762 m
2019/05/23 17:30 GCLP 231730Z 36028G38KT 330V030 9999 FEW025 22/13 Q1016 NOSIG
 
LELN - León
Actualización: 23/05/2019 19:30
Despejado
Despejado
 Viento del N
Viento: N 19 km/h
Temperatura: 17°C
Rocío: 9°C
Humedad: 59%
Barómetro: 1017 hPa
Resumen: Despejado
Visibilidad: greater than 10 km
2019/05/23 17:30 LELN 231730Z 01010KT 320V050 CAVOK 17/09 Q1017
LELO - Logroño
Actualización: 23/05/2019 19:30
Few Clouds
Few Clouds
 Viento del E
Viento: E 6 km/h
Temperatura: 23°C
Rocío: 12°C
Humedad: 50%
Barómetro: 1015 hPa
Nubosidad: Few Clouds
Visibilidad: 10 km
Cloud details: Few Clouds 1829 m
2019/05/23 17:30 LELO 231730Z 09003KT 060V140 9999 FEW060 23/12 Q1015
LECV - Madrid/Colmenar
Actualización: 23/05/2019 19:00
Partly Cloudy
Partly Cloudy
 Viento del SO
Viento: SO 17 km/h, Racha: 35 km/h
Temperatura: 25°C
Rocío: 0°C
Humedad: 19%
Barómetro: 1016 hPa
Nubosidad: Partly Cloudy
Visibilidad: 10 km
Cloud details: Few Clouds 1981 m
Partly Cloudy 2042 m
2019/05/23 17:00 LECV 231700Z 22009G19KT 140V290 9999 FEW065TCU SCT067 25/M00 Q1016
 
LEMD - Madrid/Barajas
Actualización: 23/05/2019 19:30
Few Clouds
Few Clouds
 Viento del SO
Viento: SO 24 km/h
Temperatura: 29°C
Rocío: 2°C
Humedad: 18%
Barómetro: 1014 hPa
Nubosidad: Few Clouds
Visibilidad: 10 km
Cloud details: Few Clouds 2286 m
2019/05/23 17:30 LEMD 231730Z 23013KT 9999 FEW075 29/02 Q1014 NOSIG
LEVS - Madrid/Cuatro Vientos
Actualización: 23/05/2019 19:30
Few Clouds
Few Clouds
 Viento del OSO
Viento: OSO 20 km/h
Temperatura: 28°C
Rocío: 3°C
Humedad: 20%
Barómetro: 1014 hPa
Nubosidad: Few Clouds
Visibilidad: 10 km
Cloud details: Few Clouds 1768 m
2019/05/23 17:30 LEVS 231730Z 25011KT 200V280 9999 FEW058 28/03 Q1014
LEGT - Madrid/Getafe
Actualización: 23/05/2019 19:00
Despejado
Despejado
 Viento del SO
Viento: SO 20 km/h
Temperatura: 29°C
Rocío: 7°C
Humedad: 25%
Barómetro: 1014 hPa
Resumen: Despejado
Visibilidad: greater than 10 km
2019/05/23 17:00 LEGT 231700Z 23011KT 200V280 CAVOK 29/07 Q1014
 
LETO - Madrid/Torrejón
Actualización: 23/05/2019 19:00
Few Clouds
Few Clouds
 Viento del OSO
Viento: OSO 24 km/h
Temperatura: 29°C
Rocío: 2°C
Humedad: 18%
Barómetro: 1014 hPa
Nubosidad: Few Clouds
Visibilidad: 10 km
Cloud details: Few Clouds 1981 m
2019/05/23 17:00 LETO 231700Z 25013KT 200V280 9999 FEW065 29/02 Q1014 NOSIG
LEMG - Málaga
Actualización: 23/05/2019 19:30
Despejado
Despejado
 Viento del SE
Viento: SE 15 km/h
Temperatura: 24°C
Rocío: 4°C
Humedad: 27%
Barómetro: 1015 hPa
Resumen: Despejado
Visibilidad: greater than 10 km
2019/05/23 17:30 LEMG 231730Z 14008KT CAVOK 24/04 Q1015 NOSIG
GEML - Melilla
Actualización: 23/05/2019 19:30
Few Clouds
Few Clouds
 Viento del ONO
Viento: ONO 7 km/h
Temperatura: 24°C
Rocío: 16°C
Humedad: 61%
Barómetro: 1015 hPa
Nubosidad: Few Clouds
Visibilidad: 10 km
Cloud details: Few Clouds 366 m
2019/05/23 17:30 GEML 231730Z 30004KT 230V350 9999 FEW012 24/16 Q1015
 
LEMH - Mahón
Actualización: 23/05/2019 19:30
Despejado
Despejado
 Viento del S
Viento: S 19 km/h
Temperatura: 20°C
Rocío: 14°C
Humedad: 69%
Barómetro: 1017 hPa
Resumen: Despejado
Visibilidad: greater than 10 km
2019/05/23 17:30 LEMH 231730Z 18010KT 150V230 CAVOK 20/14 Q1017
LEMO - Morón de La Frontera
Actualización: 23/05/2019 19:00
Despejado
Despejado
 Viento del OSO
Viento: OSO 11 km/h
Temperatura: 31°C
Rocío: 6°C
Humedad: 21%
Barómetro: 1014 hPa
Resumen: Despejado
Visibilidad: greater than 10 km
2019/05/23 17:00 LEMO 231700Z 25006KT 200V320 CAVOK 31/06 Q1014 NOSIG
LEMI - Murcia/Corvera
Actualización: 23/05/2019 19:30
Despejado
Despejado
 Viento del SSO
Viento: SSO 11 km/h
Temperatura: 25°C
Rocío: 1°C
Humedad: 21%
Barómetro: 1015 hPa
Resumen: Despejado
Visibilidad: greater than 10 km
2019/05/23 17:30 LEMI 231730Z 20006KT 170V230 CAVOK 25/01 Q1015
 
LERI - Murcia/Alcantarilla
Actualización: 23/05/2019 19:00
Despejado
Despejado
 Viento del S
Viento: S 4 km/h
Temperatura: 29°C
Rocío: 3°C
Humedad: 19%
Barómetro: 1014 hPa
Resumen: Despejado
Visibilidad: greater than 10 km
2019/05/23 17:00 LERI 231700Z 17002KT CAVOK 29/03 Q1014 NOSIG
LELC - Murcia/San Javier
Actualización: 23/05/2019 19:30
Despejado
Despejado
 Viento del SE
Viento: SE 17 km/h
Temperatura: 23°C
Rocío: 19°C
Humedad: 78%
Barómetro: 1015 hPa
Resumen: Despejado
Visibilidad: greater than 10 km
2019/05/23 17:30 LELC 231730Z 13009KT 100V160 CAVOK 23/19 Q1015 NOSIG
LEPA - Palma de Mallorca
Actualización: 23/05/2019 19:30
Despejado
Despejado
 Viento del OSO
Viento: OSO 17 km/h
Temperatura: 21°C
Rocío: 14°C
Humedad: 64%
Barómetro: 1016 hPa
Resumen: Despejado
Visibilidad: greater than 10 km
2019/05/23 17:30 LEPA 231730Z 25009KT 210V280 CAVOK 21/14 Q1016 NOSIG
 
LEPP - Pamplona
Actualización: 23/05/2019 19:30
Few Clouds
Few Clouds
 Viento del NO
Viento: NO 20 km/h
Temperatura: 16°C
Rocío: 10°C
Humedad: 68%
Barómetro: 1017 hPa
Nubosidad: Few Clouds
Visibilidad: 10 km
Cloud details: Few Clouds 610 m
2019/05/23 17:30 LEPP 231730Z 32011KT 9999 FEW020 16/10 Q1017
LERS - Reus
Actualización: 23/05/2019 19:30
Few Clouds
Few Clouds
 Viento del S
Viento: S 7 km/h
Temperatura: 20°C
Rocío: 16°C
Humedad: 78%
Barómetro: 1015 hPa
Nubosidad: Few Clouds
Visibilidad: 10 km
Cloud details: Few Clouds 488 m
2019/05/23 17:30 LERS 231730Z 18004KT 110V230 9999 FEW016 20/16 Q1015
LERT - Rota
Actualización: 23/05/2019 19:00
Despejado
Despejado
 Viento del O
Viento: O 20 km/h
Temperatura: 24°C
Rocío: 15°C
Humedad: 57%
Barómetro: 1015 hPa
Resumen: Despejado
Visibilidad: greater than 10 km
2019/05/23 17:00 LERT 231700Z 27011KT CAVOK 24/15 Q1015 NOSIG
 
LELL - Sabadell
Actualización: 23/05/2019 19:30
Despejado
Despejado
 Viento del SSE
Viento: SSE 7 km/h
Temperatura: 21°C
Rocío: 14°C
Humedad: 64%
Barómetro: 1015 hPa
Resumen: Despejado
Visibilidad: greater than 10 km
2019/05/23 17:30 LELL 231730Z 16004KT 120V200 CAVOK 21/14 Q1015
LESA - Salamanca
Actualización: 23/05/2019 19:30
Few Clouds
Few Clouds
 Viento del ONO
Viento: ONO 19 km/h
Temperatura: 24°C
Rocío: 5°C
Humedad: 29%
Barómetro: 1017 hPa
Nubosidad: Few Clouds
Visibilidad: 10 km
Cloud details: Few Clouds 1219 m
2019/05/23 17:30 LESA 231730Z 30010KT 260V340 9999 FEW040 24/05 Q1017
LESO - San Sebastián
Actualización: 23/05/2019 19:30
Lluvia débil, Muy nuboso
Lluvia débil, Muy nuboso
 Viento del OSO
Viento: OSO 11 km/h
Temperatura: 16°C
Rocío: 13°C
Humedad: 83%
Barómetro: 1019 hPa
Resumen: Light Rain
Nubosidad: Mostly Cloudy
Visibilidad: 10 km
Cloud details: Partly Cloudy 335 m
Partly Cloudy 762 m
Mostly Cloudy 1829 m
2019/05/23 17:30 LESO 231730Z 24006KT 200V310 9999 -RA SCT011 SCT025 BKN060 16/13 Q1019
 
LEXJ - Santander
Actualización: 23/05/2019 19:30
Light drizzle, Muy nuboso
Light drizzle, Muy nuboso
 Viento del ONO
Viento: ONO 20 km/h
Temperatura: 16°C
Rocío: 14°C
Humedad: 88%
Barómetro: 1020 hPa
Resumen: Light Drizzle
Nubosidad: Mostly Cloudy
Visibilidad: 10 km
Cloud details: Mostly Cloudy 366 m
Mostly Cloudy 914 m
2019/05/23 17:30 LEXJ 231730Z 29011KT 260V320 9999 -DZ BKN012 BKN030 16/14 Q1020
LEPA - Palma de Mallorca
Actualización: 23/05/2019 19:30
Despejado
Despejado
 Viento del OSO
Viento: OSO 17 km/h
Temperatura: 21°C
Rocío: 14°C
Humedad: 64%
Barómetro: 1016 hPa
Resumen: Despejado
Visibilidad: greater than 10 km
2019/05/23 17:30 LEPA 231730Z 25009KT 210V280 CAVOK 21/14 Q1016 NOSIG
LEPP - Pamplona
Actualización: 23/05/2019 19:30
Few Clouds
Few Clouds
 Viento del NO
Viento: NO 20 km/h
Temperatura: 16°C
Rocío: 10°C
Humedad: 68%
Barómetro: 1017 hPa
Nubosidad: Few Clouds
Visibilidad: 10 km
Cloud details: Few Clouds 610 m
2019/05/23 17:30 LEPP 231730Z 32011KT 9999 FEW020 16/10 Q1017
 
LEST - Santiago de Compostela
Actualización: 23/05/2019 19:30
Partly Cloudy
Partly Cloudy
 Viento del N
Viento: N 20 km/h
Temperatura: 15°C
Rocío: 10°C
Humedad: 72%
Barómetro: 1021 hPa
Nubosidad: Partly Cloudy
Visibilidad: 10 km
Cloud details: Partly Cloudy 1006 m
2019/05/23 17:30 LEST 231730Z 36011KT 9999 SCT033 15/10 Q1021 NOSIG
LEZL - Sevilla
Actualización: 23/05/2019 19:30
Despejado
Despejado
 Viento del SO
Viento: SO 26 km/h
Temperatura: 31°C
Rocío: 11°C
Humedad: 29%
Barómetro: 1013 hPa
Resumen: Despejado
Visibilidad: greater than 10 km
2019/05/23 17:30 LEZL 231730Z 23014KT 200V260 CAVOK 31/11 Q1013 NOSIG
GCXO - Tenerife
Actualización: 23/05/2019 19:30
Mostly Cloudy
Mostly Cloudy
 Viento del NO
Viento: NO 35 km/h
Temperatura: 16°C
Rocío: 14°C
Humedad: 88%
Barómetro: 1020 hPa
Nubosidad: Mostly Cloudy
Visibilidad: 10 km
Cloud details: Few Clouds 91 m
Mostly Cloudy 213 m
2019/05/23 17:30 GCXO 231730Z 31019KT 280V340 9999 FEW003 BKN007 16/14 Q1020 NOSIG
 
GCTS - Tenerife-Sur
Actualización: 23/05/2019 19:30
Few Clouds
Few Clouds
 Viento del E
Viento: E 41 km/h
Temperatura: 23°C
Rocío: 15°C
Humedad: 61%
Barómetro: 1017 hPa
Nubosidad: Few Clouds
Visibilidad: 10 km
Cloud details: Few Clouds 823 m
2019/05/23 17:30 GCTS 231730Z 09022KT 9999 FEW027 23/15 Q1017 WS R07 NOSIG
LEVC - Valencia
Actualización: 23/05/2019 19:30
Few Clouds
Few Clouds
 Viento del NE
Viento: NE 17 km/h
Temperatura: 23°C
Rocío: 13°C
Humedad: 53%
Barómetro: 1014 hPa
Nubosidad: Few Clouds
Visibilidad: 10 km
Cloud details: Few Clouds 914 m
2019/05/23 17:30 LEVC 231730Z 05009KT 9999 FEW030 23/13 Q1014 NOSIG
LEVD - Valladolid
Actualización: 23/05/2019 19:30
Few Clouds
Few Clouds
 Viento del O
Viento: O 24 km/h
Temperatura: 24°C
Rocío: 2°C
Humedad: 24%
Barómetro: 1016 hPa
Nubosidad: Few Clouds
Visibilidad: 10 km
Cloud details: Few Clouds 1463 m
2019/05/23 17:30 LEVD 231730Z 26013KT 230V300 9999 FEW048 24/02 Q1016
 
LEVX - Vigo
Actualización: 23/05/2019 19:30
Few Clouds
Few Clouds
 Viento del O
Viento: O 19 km/h
Temperatura: 16°C
Rocío: 12°C
Humedad: 77%
Barómetro: 1021 hPa
Nubosidad: Few Clouds
Visibilidad: 10 km
Cloud details: Few Clouds 914 m
2019/05/23 17:30 LEVX 231730Z 27010KT 240V300 9999 FEW030 16/12 Q1021 NOSIG
LEVT - Vitoria
Actualización: 23/05/2019 19:30
Partly Cloudy
Partly Cloudy
 Viento del NNE
Viento: NNE 26 km/h
Temperatura: 15°C
Rocío: 10°C
Humedad: 72%
Barómetro: 1018 hPa
Nubosidad: Partly Cloudy
Visibilidad: 10 km
Cloud details: Few Clouds 610 m
Partly Cloudy 2286 m
2019/05/23 17:30 LEVT 231730Z 03014KT 360V060 9999 FEW020 SCT075 15/10 Q1018
LEZG - Zaragoza
Actualización: 23/05/2019 19:30
Partly Cloudy
Partly Cloudy
 Viento del NO
Viento: NO 13 km/h
Temperatura: 20°C
Rocío: 14°C
Humedad: 69%
Barómetro: 1014 hPa
Nubosidad: Partly Cloudy
Visibilidad: 10 km
Cloud details: Few Clouds 1067 m
Few Clouds 1829 m
Partly Cloudy 2591 m
2019/05/23 17:30 LEZG 231730Z 31007KT 280V340 9999 FEW035 FEW060CB SCT085 20/14 Q1014

La estación de MeteoMurcia.com, publica sus datos en los siguientes proyectos:

Weather Underground PWS IMURCIAP2 Meteoclimatic www.awekas.at

W3Counter
Web Analytics